createdAt,value
2023-02-07T00:00:56.026Z,30.00
2023-02-07T00:03:23.139Z,30.00
2023-02-07T00:05:50.222Z,29.90
2023-02-07T00:08:17.393Z,30.00
2023-02-07T00:10:44.529Z,30.00
2023-02-07T00:13:11.654Z,30.00
2023-02-07T00:15:38.961Z,30.00
2023-02-07T00:18:06.270Z,29.90
2023-02-07T00:20:33.329Z,30.00
2023-02-07T00:23:00.414Z,30.00
2023-02-07T00:25:27.528Z,29.90
2023-02-07T00:27:54.681Z,29.90
2023-02-07T00:30:21.808Z,30.00
2023-02-07T00:32:48.917Z,29.90
2023-02-07T00:35:16.231Z,29.90
2023-02-07T00:37:43.303Z,29.90
2023-02-07T00:40:10.706Z,29.90
2023-02-07T00:42:37.756Z,30.00
2023-02-07T00:45:05.076Z,30.00
2023-02-07T00:47:32.199Z,30.00
2023-02-07T00:49:59.277Z,30.00
2023-02-07T00:52:26.379Z,29.90
2023-02-07T00:54:53.439Z,29.90
2023-02-07T00:57:20.491Z,29.90
2023-02-07T00:59:47.541Z,29.80
2023-02-07T01:02:14.630Z,29.90
2023-02-07T01:04:41.752Z,29.90
2023-02-07T01:07:09.422Z,29.80
2023-02-07T01:09:36.534Z,29.80
2023-02-07T01:12:03.787Z,29.80
2023-02-07T01:14:30.956Z,29.80
2023-02-07T01:16:58.113Z,29.80
2023-02-07T01:19:25.228Z,29.80
2023-02-07T01:21:52.262Z,29.80
2023-02-07T01:24:19.355Z,29.80
2023-02-07T01:26:46.756Z,29.70
2023-02-07T01:29:15.618Z,29.80
2023-02-07T01:31:43.532Z,29.80
2023-02-07T01:34:13.280Z,29.80
2023-02-07T01:36:40.774Z,29.70
2023-02-07T01:39:08.627Z,29.70
2023-02-07T01:41:36.056Z,29.70
2023-02-07T01:44:09.116Z,29.70
2023-02-07T01:46:37.102Z,29.70
2023-02-07T01:49:10.360Z,30.10
2023-02-07T01:51:39.059Z,29.70
2023-02-07T01:54:10.009Z,29.70
2023-02-07T01:56:41.526Z,29.70
2023-02-07T01:59:08.706Z,29.70
2023-02-07T02:01:36.580Z,29.70
2023-02-07T02:04:04.636Z,29.70
2023-02-07T02:06:33.549Z,29.70
2023-02-07T02:09:02.694Z,29.70
2023-02-07T02:12:09.509Z,29.70
2023-02-07T02:14:58.396Z,29.70
2023-02-07T02:18:05.221Z,29.70
2023-02-07T02:21:07.635Z,29.70
2023-02-07T02:24:13.646Z,29.60
2023-02-07T02:27:11.958Z,29.70
2023-02-07T02:30:18.772Z,29.60
2023-02-07T02:33:07.689Z,29.60
2023-02-07T02:35:59.284Z,29.60
2023-02-07T02:38:46.382Z,29.60
2023-02-07T02:41:22.309Z,29.60
2023-02-07T02:44:13.376Z,29.60
2023-02-07T02:46:42.779Z,29.60
2023-02-07T02:49:13.939Z,29.60
2023-02-07T02:51:41.207Z,29.60
2023-02-07T02:54:32.826Z,29.60
2023-02-07T02:57:39.704Z,29.60
2023-02-07T03:00:32.559Z,29.70
2023-02-07T03:03:21.871Z,29.60
2023-02-07T03:06:16.546Z,29.70
2023-02-07T03:09:10.175Z,29.60
2023-02-07T03:11:49.449Z,29.70
2023-02-07T03:14:35.300Z,29.60
2023-02-07T03:17:30.028Z,29.60
2023-02-07T03:20:15.126Z,29.60
2023-02-07T03:22:43.929Z,29.50
2023-02-07T03:25:14.991Z,29.50
2023-02-07T03:27:42.985Z,29.50
2023-02-07T03:30:13.542Z,29.50
2023-02-07T03:32:42.790Z,29.50
2023-02-07T03:35:20.874Z,29.50
2023-02-07T03:37:56.709Z,29.50
2023-02-07T03:40:27.933Z,29.50
2023-02-07T03:43:12.585Z,29.50
2023-02-07T03:45:40.530Z,29.40
2023-02-07T03:48:08.111Z,29.50
2023-02-07T03:50:35.233Z,29.40
2023-02-07T03:53:02.571Z,29.40
2023-02-07T03:55:29.768Z,29.40
2023-02-07T03:57:56.929Z,29.50
2023-02-07T04:00:24.222Z,29.40
2023-02-07T04:02:51.346Z,29.40
2023-02-07T04:05:18.540Z,29.40
2023-02-07T04:07:45.670Z,29.40
2023-02-07T04:10:12.747Z,29.40
2023-02-07T04:12:39.852Z,29.40
2023-02-07T04:15:08.223Z,29.40
2023-02-07T04:17:35.528Z,29.40
2023-02-07T04:20:02.774Z,29.40
2023-02-07T04:22:30.289Z,29.40
2023-02-07T04:24:57.383Z,29.40
2023-02-07T04:27:24.785Z,29.40
2023-02-07T04:29:52.474Z,29.40
2023-02-07T04:32:19.649Z,29.30
2023-02-07T04:34:46.746Z,29.30
2023-02-07T04:37:14.241Z,29.30
2023-02-07T04:39:41.305Z,29.30
2023-02-07T04:42:08.439Z,29.30
2023-02-07T04:44:35.488Z,29.30
2023-02-07T04:47:02.572Z,29.30
2023-02-07T04:49:30.014Z,29.30
2023-02-07T04:51:57.742Z,29.30
2023-02-07T04:54:24.949Z,29.20
2023-02-07T04:56:52.044Z,29.30
2023-02-07T04:59:19.106Z,29.30
2023-02-07T05:01:46.149Z,29.30
2023-02-07T05:04:13.254Z,29.30
2023-02-07T05:06:40.436Z,29.30
2023-02-07T05:09:07.491Z,29.30
2023-02-07T05:11:34.557Z,29.40
2023-02-07T05:14:01.685Z,29.30
2023-02-07T05:16:28.812Z,29.30
2023-02-07T05:18:56.277Z,29.30
2023-02-07T05:21:23.337Z,29.30
2023-02-07T05:23:50.594Z,29.30
2023-02-07T05:26:17.779Z,29.30
2023-02-07T05:28:45.219Z,29.20
2023-02-07T05:31:12.501Z,29.20
2023-02-07T05:33:39.686Z,29.20
2023-02-07T05:36:07.296Z,29.20
2023-02-07T05:38:34.369Z,29.10
2023-02-07T05:41:01.549Z,28.90
2023-02-07T05:43:28.651Z,28.80
2023-02-07T05:45:55.754Z,28.80
2023-02-07T05:48:22.818Z,28.80
2023-02-07T05:50:49.903Z,28.80
2023-02-07T05:53:17.053Z,28.80
2023-02-07T05:55:44.195Z,28.80
2023-02-07T05:58:11.252Z,28.90
2023-02-07T06:00:38.299Z,28.80
2023-02-07T06:03:05.689Z,28.90
2023-02-07T06:05:33.976Z,28.90
2023-02-07T06:08:01.162Z,28.90
2023-02-07T06:10:28.263Z,28.90
2023-02-07T06:12:55.413Z,28.90
2023-02-07T06:15:22.817Z,28.90
2023-02-07T06:17:49.892Z,29.00
2023-02-07T06:20:17.318Z,29.00
2023-02-07T06:22:44.401Z,29.00
2023-02-07T06:25:12.086Z,28.90
2023-02-07T06:27:41.584Z,28.90
2023-02-07T06:30:10.673Z,29.00
2023-02-07T06:32:37.727Z,29.10
2023-02-07T06:35:06.655Z,29.10
2023-02-07T06:37:33.886Z,29.10
2023-02-07T06:40:00.993Z,29.10
2023-02-07T06:42:28.070Z,29.10
2023-02-07T06:44:55.142Z,29.10
2023-02-07T06:47:22.239Z,29.10
2023-02-07T06:49:49.559Z,29.10
2023-02-07T06:52:17.117Z,29.10
2023-02-07T06:54:44.285Z,29.00
2023-02-07T06:57:11.546Z,29.00
2023-02-07T06:59:38.646Z,29.00
2023-02-07T07:02:05.977Z,29.00
2023-02-07T07:04:33.217Z,29.00
2023-02-07T07:07:00.365Z,29.00
2023-02-07T07:09:27.512Z,29.00
2023-02-07T07:11:54.675Z,29.00
2023-02-07T07:14:21.822Z,29.00
2023-02-07T07:16:48.891Z,29.00
2023-02-07T07:19:16.103Z,29.10
2023-02-07T07:21:43.268Z,29.10
2023-02-07T07:24:10.364Z,29.10
2023-02-07T07:26:48.805Z,29.10
2023-02-07T07:29:18.611Z,29.20
2023-02-07T07:31:46.547Z,29.30
2023-02-07T07:34:14.634Z,29.30
2023-02-07T07:36:42.548Z,29.30
2023-02-07T07:39:10.751Z,29.30
2023-02-07T07:41:37.977Z,29.20
2023-02-07T07:44:05.241Z,29.20
2023-02-07T07:46:32.544Z,29.10
2023-02-07T07:49:00.727Z,29.10
2023-02-07T07:51:27.920Z,29.10
2023-02-07T07:53:55.119Z,29.00
2023-02-07T07:56:22.192Z,29.10
2023-02-07T07:58:49.649Z,29.00
2023-02-07T08:01:16.862Z,29.00
2023-02-07T08:03:43.903Z,29.00
2023-02-07T08:06:11.018Z,29.00
2023-02-07T08:08:38.276Z,29.10
2023-02-07T08:11:08.540Z,29.00
2023-02-07T08:13:36.617Z,29.00
2023-02-07T08:16:05.082Z,29.10
2023-02-07T08:18:32.344Z,29.00
2023-02-07T08:20:59.404Z,28.90
2023-02-07T08:23:26.559Z,28.90
2023-02-07T08:25:53.717Z,28.90
2023-02-07T08:28:21.531Z,29.00
2023-02-07T08:30:48.860Z,29.00
2023-02-07T08:33:16.885Z,29.10
2023-02-07T08:35:45.156Z,29.20
2023-02-07T08:38:12.345Z,29.20
2023-02-07T08:40:39.959Z,29.30
2023-02-07T08:43:12.548Z,29.30
2023-02-07T08:45:43.246Z,29.30
2023-02-07T08:48:12.581Z,29.40
2023-02-07T08:50:39.949Z,29.30
2023-02-07T08:53:07.548Z,29.40
2023-02-07T08:55:34.683Z,29.80
2023-02-07T08:58:01.862Z,30.00
2023-02-07T09:00:29.127Z,30.00
2023-02-07T09:02:56.348Z,30.10
2023-02-07T09:05:23.454Z,30.60
2023-02-07T09:07:51.060Z,30.00
2023-02-07T09:10:18.239Z,30.00
2023-02-07T09:12:48.305Z,30.10
2023-02-07T09:15:15.450Z,30.10
2023-02-07T09:17:42.588Z,30.00
2023-02-07T09:20:11.127Z,30.00
2023-02-07T09:22:58.091Z,30.20
2023-02-07T09:25:25.587Z,30.20
2023-02-07T09:27:52.702Z,30.10
2023-02-07T09:30:20.500Z,29.90
2023-02-07T09:32:47.701Z,29.80
2023-02-07T09:35:14.847Z,29.60
2023-02-07T09:37:49.238Z,29.40
2023-02-07T09:40:19.338Z,29.20
2023-02-07T09:43:11.933Z,29.20
2023-02-07T09:45:45.634Z,29.20
2023-02-07T09:48:20.232Z,29.20
2023-02-07T09:50:57.043Z,29.10
2023-02-07T09:53:30.139Z,29.00
2023-02-07T09:56:01.276Z,29.10
2023-02-07T09:58:54.186Z,29.40
2023-02-07T10:01:30.251Z,28.90
2023-02-07T10:04:30.332Z,28.80
2023-02-07T10:06:59.823Z,28.80
2023-02-07T10:09:39.368Z,28.80
2023-02-07T10:12:45.551Z,28.70
2023-02-07T10:15:48.842Z,28.70
2023-02-07T10:18:38.379Z,28.60
2023-02-07T10:21:29.903Z,28.60
2023-02-07T10:24:35.574Z,28.60
2023-02-07T10:27:15.999Z,28.90
2023-02-07T10:29:51.364Z,28.80
2023-02-07T10:32:23.078Z,28.70
2023-02-07T10:34:57.289Z,28.80
2023-02-07T10:37:27.777Z,28.80
2023-02-07T10:40:00.994Z,28.80
2023-02-07T10:42:31.323Z,28.80
2023-02-07T10:44:58.981Z,28.90
2023-02-07T10:47:26.594Z,28.90
2023-02-07T10:49:56.080Z,28.90
2023-02-07T10:52:44.959Z,28.80
2023-02-07T10:55:19.828Z,28.80
2023-02-07T10:58:02.723Z,28.80
2023-02-07T11:00:34.727Z,28.80
2023-02-07T11:03:14.811Z,28.90
2023-02-07T11:05:58.929Z,28.70
2023-02-07T11:08:28.589Z,29.00
2023-02-07T11:10:58.108Z,28.50
2023-02-07T11:13:29.375Z,28.50
2023-02-07T11:16:07.257Z,28.50
2023-02-07T11:19:02.891Z,28.40
2023-02-07T11:21:44.495Z,28.20
2023-02-07T11:24:31.410Z,28.20
2023-02-07T11:27:15.850Z,28.20
2023-02-07T11:30:04.381Z,28.20
2023-02-07T11:32:31.872Z,28.10
2023-02-07T11:35:09.687Z,28.00
2023-02-07T11:37:42.200Z,27.90
2023-02-07T11:40:27.597Z,27.90
2023-02-07T11:43:06.936Z,27.90
2023-02-07T11:45:34.677Z,27.80
2023-02-07T11:48:03.267Z,27.80
2023-02-07T11:50:41.203Z,27.80
2023-02-07T11:53:24.567Z,27.80
2023-02-07T11:55:54.808Z,27.70
2023-02-07T11:58:42.942Z,27.70
2023-02-07T12:01:25.315Z,27.70
2023-02-07T12:04:01.188Z,27.80
2023-02-07T12:06:42.188Z,27.60
2023-02-07T12:09:29.074Z,27.60
2023-02-07T12:11:57.979Z,27.70
2023-02-07T12:14:50.565Z,27.70
2023-02-07T12:17:25.418Z,27.60
2023-02-07T12:19:57.677Z,27.60
2023-02-07T12:22:37.303Z,27.60
2023-02-07T12:25:14.484Z,27.60
2023-02-07T12:27:45.835Z,27.50
2023-02-07T12:30:33.849Z,27.30
2023-02-07T12:33:22.122Z,27.30
2023-02-07T12:36:04.432Z,27.30
2023-02-07T12:38:51.295Z,27.20
2023-02-07T12:41:58.845Z,27.10
2023-02-07T12:44:40.851Z,27.10
2023-02-07T12:47:35.956Z,27.10
2023-02-07T12:50:29.943Z,27.00
2023-02-07T12:53:29.127Z,27.00
2023-02-07T12:56:35.953Z,27.00
2023-02-07T12:59:42.956Z,26.90
2023-02-07T13:02:40.284Z,26.90
2023-02-07T13:05:45.988Z,26.90
2023-02-07T13:08:47.212Z,26.70
2023-02-07T13:11:54.590Z,26.70
2023-02-07T13:14:41.614Z,26.60
2023-02-07T13:17:49.197Z,26.60
2023-02-07T13:20:40.148Z,26.60
2023-02-07T13:23:22.019Z,26.70
2023-02-07T13:25:54.437Z,26.70
2023-02-07T13:28:30.777Z,26.60
2023-02-07T13:31:00.150Z,26.70
2023-02-07T13:33:40.117Z,26.70
2023-02-07T13:36:38.716Z,26.70
2023-02-07T13:39:40.036Z,26.60
2023-02-07T13:42:29.639Z,26.60
2023-02-07T13:45:31.588Z,26.60
2023-02-07T13:48:12.000Z,26.60
2023-02-07T13:50:45.416Z,26.60
2023-02-07T13:53:39.801Z,26.60
2023-02-07T13:56:32.791Z,26.60
2023-02-07T13:59:20.726Z,26.60
2023-02-07T14:01:54.741Z,26.80
2023-02-07T14:04:23.977Z,27.40
2023-02-07T14:07:03.836Z,27.60
2023-02-07T14:09:36.148Z,27.60
2023-02-07T14:12:16.469Z,27.60
2023-02-07T14:14:56.906Z,27.70
2023-02-07T14:18:03.255Z,27.80
2023-02-07T14:20:50.279Z,27.80
2023-02-07T14:23:20.108Z,27.80
2023-02-07T14:25:47.502Z,27.80
2023-02-07T14:28:39.269Z,27.90
2023-02-07T14:31:22.381Z,27.90
2023-02-07T14:34:12.351Z,27.80
2023-02-07T14:36:39.628Z,27.60
2023-02-07T14:39:28.130Z,27.50
2023-02-07T14:42:01.246Z,27.40
2023-02-07T14:44:38.610Z,27.30
2023-02-07T14:47:08.525Z,27.30
2023-02-07T14:49:45.480Z,27.20
2023-02-07T14:52:16.143Z,27.20
2023-02-07T14:54:55.542Z,27.20
2023-02-07T14:57:48.897Z,27.30
2023-02-07T15:00:41.501Z,27.30
2023-02-07T15:03:18.881Z,27.20
2023-02-07T15:06:02.390Z,27.30
2023-02-07T15:08:32.762Z,27.50
2023-02-07T15:11:01.879Z,27.60
2023-02-07T15:13:43.684Z,27.80
2023-02-07T15:16:21.304Z,27.80
2023-02-07T15:18:52.953Z,27.80
2023-02-07T15:21:37.985Z,27.80
2023-02-07T15:24:18.711Z,28.00
2023-02-07T15:26:51.985Z,28.00
2023-02-07T15:29:23.146Z,28.10
2023-02-07T15:31:51.768Z,28.10
2023-02-07T15:34:24.984Z,28.20
2023-02-07T15:36:53.325Z,28.20
2023-02-07T15:39:24.747Z,28.20
2023-02-07T15:41:54.713Z,28.20
2023-02-07T15:44:30.024Z,28.30
2023-02-07T15:47:00.028Z,28.50
2023-02-07T15:49:40.853Z,28.70
2023-02-07T15:52:20.921Z,28.90
2023-02-07T15:54:51.729Z,29.00
2023-02-07T15:57:35.667Z,29.20
2023-02-07T16:00:09.287Z,29.40
2023-02-07T16:02:40.431Z,29.50
2023-02-07T16:05:30.697Z,29.60
2023-02-07T16:08:00.099Z,29.80
2023-02-07T16:10:40.042Z,29.90
2023-02-07T16:13:23.179Z,30.00
2023-02-07T16:15:59.747Z,30.30
2023-02-07T16:18:39.970Z,30.60
2023-02-07T16:21:17.863Z,30.80
2023-02-07T16:23:46.876Z,31.10
2023-02-07T16:26:17.714Z,31.40
2023-02-07T16:28:46.100Z,31.50
2023-02-07T16:31:14.074Z,31.70
2023-02-07T16:33:41.274Z,31.70
2023-02-07T16:36:17.838Z,31.90
2023-02-07T16:38:45.405Z,32.60
2023-02-07T16:41:26.263Z,32.20
2023-02-07T16:43:54.295Z,32.20
2023-02-07T16:46:21.345Z,31.60
2023-02-07T16:48:48.405Z,30.80
2023-02-07T16:51:16.957Z,30.60
2023-02-07T16:53:44.525Z,31.20
2023-02-07T16:56:14.709Z,31.90
2023-02-07T16:58:42.435Z,33.00
2023-02-07T17:01:16.595Z,34.00
2023-02-07T17:03:43.822Z,34.70
2023-02-07T17:06:15.605Z,35.00
2023-02-07T17:08:43.299Z,34.80
2023-02-07T17:11:16.831Z,34.40
2023-02-07T17:13:44.252Z,34.00
2023-02-07T17:16:14.836Z,33.60
2023-02-07T17:18:42.316Z,33.40
2023-02-07T17:21:11.627Z,33.10
2023-02-07T17:23:38.780Z,32.90
2023-02-07T17:26:10.719Z,32.60
2023-02-07T17:28:37.787Z,32.50
2023-02-07T17:31:05.057Z,32.30
2023-02-07T17:33:32.117Z,32.20
2023-02-07T17:35:59.167Z,32.10
2023-02-07T17:38:26.268Z,32.10
2023-02-07T17:40:53.702Z,32.20
2023-02-07T17:43:20.792Z,32.20
2023-02-07T17:45:47.931Z,32.20
2023-02-07T17:48:15.046Z,32.30
2023-02-07T17:50:42.433Z,32.30
2023-02-07T17:53:11.276Z,32.30
2023-02-07T17:55:38.980Z,32.30
2023-02-07T17:58:06.646Z,32.30
2023-02-07T18:00:37.679Z,32.30
2023-02-07T18:03:06.536Z,32.30
2023-02-07T18:05:34.022Z,32.30
2023-02-07T18:08:01.215Z,32.30
2023-02-07T18:10:31.547Z,32.20
2023-02-07T18:12:59.340Z,32.30
2023-02-07T18:15:27.264Z,32.30
2023-02-07T18:17:54.869Z,32.20
2023-02-07T18:20:24.963Z,32.20
2023-02-07T18:22:56.448Z,32.20
2023-02-07T18:25:24.770Z,32.20
2023-02-07T18:27:54.448Z,32.30
2023-02-07T18:30:23.764Z,32.40
2023-02-07T18:32:50.878Z,32.50
2023-02-07T18:35:19.968Z,32.60
2023-02-07T18:37:47.160Z,32.60
2023-02-07T18:40:15.924Z,32.70
2023-02-07T18:42:43.179Z,32.70
2023-02-07T18:45:10.797Z,32.70
2023-02-07T18:47:42.800Z,32.70
2023-02-07T18:50:11.134Z,32.60
2023-02-07T18:52:39.198Z,32.50
2023-02-07T18:55:06.559Z,32.50
2023-02-07T18:57:33.757Z,32.30
2023-02-07T19:00:03.818Z,32.20
2023-02-07T19:02:31.068Z,32.20
2023-02-07T19:04:58.427Z,32.00
2023-02-07T19:07:25.469Z,31.90
2023-02-07T19:09:52.578Z,31.90
2023-02-07T19:12:19.690Z,31.80
2023-02-07T19:14:46.774Z,31.70
2023-02-07T19:17:15.888Z,31.70
2023-02-07T19:19:43.404Z,31.70
2023-02-07T19:22:10.433Z,31.60
2023-02-07T19:24:37.659Z,31.50
2023-02-07T19:27:08.198Z,31.50
2023-02-07T19:29:35.313Z,31.40
2023-02-07T19:32:05.744Z,31.30
2023-02-07T19:34:33.098Z,31.30
2023-02-07T19:37:00.239Z,31.30
2023-02-07T19:39:27.385Z,31.20
2023-02-07T19:41:54.865Z,31.20
2023-02-07T19:44:21.950Z,31.10
2023-02-07T19:46:49.161Z,31.10
2023-02-07T19:49:16.471Z,31.10
2023-02-07T19:51:43.556Z,31.00
2023-02-07T19:54:11.004Z,31.00
2023-02-07T19:56:38.403Z,31.00
2023-02-07T19:59:07.157Z,31.00
2023-02-07T20:01:37.486Z,30.90
2023-02-07T20:04:05.647Z,30.90
2023-02-07T20:06:34.956Z,30.80
2023-02-07T20:09:04.721Z,30.90
2023-02-07T20:11:32.231Z,30.70
2023-02-07T20:14:03.901Z,30.70
2023-02-07T20:16:34.332Z,30.70
2023-02-07T20:19:02.223Z,30.70
2023-02-07T20:21:31.722Z,30.70
2023-02-07T20:23:58.876Z,30.70
2023-02-07T20:26:31.561Z,30.60
2023-02-07T20:29:07.040Z,30.60
2023-02-07T20:31:34.205Z,30.50
2023-02-07T20:34:02.275Z,30.50
2023-02-07T20:36:30.270Z,30.50
2023-02-07T20:38:58.993Z,30.50
2023-02-07T20:41:31.000Z,30.50
2023-02-07T20:44:05.064Z,30.50
2023-02-07T20:46:35.018Z,30.50
2023-02-07T20:49:09.026Z,30.50
2023-02-07T20:51:38.022Z,30.50
2023-02-07T20:54:06.728Z,30.50
2023-02-07T20:56:34.457Z,30.50
2023-02-07T20:59:01.921Z,30.40
2023-02-07T21:01:31.140Z,30.40
2023-02-07T21:04:00.565Z,30.40
2023-02-07T21:06:28.614Z,30.30
2023-02-07T21:09:01.823Z,30.30
2023-02-07T21:11:33.984Z,30.20
2023-02-07T21:14:06.335Z,30.30
2023-02-07T21:16:34.378Z,30.20
2023-02-07T21:19:01.788Z,30.10
2023-02-07T21:21:29.423Z,30.10
2023-02-07T21:23:57.501Z,30.10
2023-02-07T21:26:26.886Z,30.10
2023-02-07T21:29:03.776Z,30.00
2023-02-07T21:31:33.526Z,30.00
2023-02-07T21:34:02.032Z,30.00
2023-02-07T21:36:31.949Z,30.00
2023-02-07T21:39:02.973Z,30.00
2023-02-07T21:41:30.757Z,30.00
2023-02-07T21:43:59.373Z,30.00
2023-02-07T21:46:29.421Z,30.00
2023-02-07T21:49:05.556Z,30.00
2023-02-07T21:51:34.035Z,30.00
2023-02-07T21:54:02.334Z,30.00
2023-02-07T21:56:31.871Z,30.00
2023-02-07T21:59:02.343Z,30.00
2023-02-07T22:01:30.989Z,30.00
2023-02-07T22:04:00.015Z,30.00
2023-02-07T22:06:27.935Z,30.00
2023-02-07T22:08:57.864Z,30.00
2023-02-07T22:11:31.497Z,30.50
2023-02-07T22:13:59.550Z,30.00
2023-02-07T22:16:28.494Z,30.00
2023-02-07T22:18:57.177Z,30.00
2023-02-07T22:21:30.299Z,30.00
2023-02-07T22:23:58.761Z,30.00
2023-02-07T22:26:26.975Z,30.00
2023-02-07T22:28:54.653Z,30.00
2023-02-07T22:31:25.369Z,30.00
2023-02-07T22:33:54.709Z,30.00
2023-02-07T22:36:24.736Z,30.00
2023-02-07T22:38:52.625Z,30.00
2023-02-07T22:41:20.984Z,30.00
2023-02-07T22:43:48.860Z,30.00
2023-02-07T22:46:18.835Z,30.00
2023-02-07T22:48:46.416Z,30.00
2023-02-07T22:51:19.997Z,30.00
2023-02-07T22:53:47.942Z,30.00
2023-02-07T22:56:15.784Z,30.00
2023-02-07T22:58:42.877Z,30.00
2023-02-07T23:01:22.871Z,30.00
2023-02-07T23:03:50.751Z,30.00
2023-02-07T23:06:18.321Z,29.90
2023-02-07T23:08:45.545Z,29.90
2023-02-07T23:11:14.588Z,29.90
2023-02-07T23:13:42.973Z,29.90
2023-02-07T23:16:18.938Z,29.90
2023-02-07T23:18:46.785Z,29.90
2023-02-07T23:21:16.433Z,29.80
2023-02-07T23:23:43.800Z,29.80
2023-02-07T23:26:14.285Z,29.80
2023-02-07T23:28:42.068Z,29.80
2023-02-07T23:31:16.023Z,29.80
2023-02-07T23:33:43.390Z,29.80
2023-02-07T23:36:10.756Z,29.70
2023-02-07T23:38:38.224Z,29.70
2023-02-07T23:41:07.376Z,29.70
2023-02-07T23:43:35.643Z,29.70
2023-02-07T23:46:02.825Z,29.70
2023-02-07T23:48:30.245Z,29.70
2023-02-07T23:50:58.617Z,29.70
2023-02-07T23:53:26.140Z,29.70
2023-02-07T23:55:55.816Z,29.70
2023-02-07T23:58:24.376Z,29.70
